Hauptseite
METAR-TAF:

METAR-TAF

Flughäfen :

Flughafen Port Moresby

Port Moresby, Papua-Neuguinea

Breite: 09-26S, Länge: 147-13E, Höhe: 38 m

Beobachtung

Neuester Wetterbericht von vor 1 Stunde und 27 Minuten, um 03:00 UTC
Wind 10 kt aus Süd/Südost, Böen bis zu 15 kt
Temperatur 30°C
Luftfeuchtigkeit 75%
Luftdruck 1009 hPa
Sichtweite 10 km oder mehr
Leicht bewölkt in der Höhe von 2500 ft
Aufgelockert bewölkt in der Höhe von 3500 ft
trockener Dunst

METAR: AYPY 170300Z 15010G15KT 9999 HZ FEW025 SCT035 30/25 Q1009

Zeit: 14:27 (04:27 UTC)

Prognose

Neuester Wetterbericht von vor 6 Stunden und 27 Minuten, um 22:00 UTC
Gültige Prognose vom 17 um 00 UTC bis 17 um 24 UTC
Wind 10 kt aus Süd/Südost
Sichtweite 10 km oder mehr
Aufgelockert bewölkt in der Höhe von 1800 ft

TAF: AYPY 162200Z 1700/1724 16010KT 9999 SCT018

Wetterbeobachtungen und Prognosen von mehr als 4000 Flughäfen (METAR und TAF Bericht).

Die verfügbaren Stationen werden durch gelbe und rote Markierungen auf der Karte dargestellt.

Führen Sie die Maus auf sie, um den Namen der Station zu sehen.

Darauf klicken, um die Beobachtung von Wetterbeobachtungen und Prognosen zu sehen.

Um die Karte zu ändern : klicken Sie auf den grünen Tasten mit einem schwarzen Kreuz Zum Vergrößern, auf den grünen Button mit einem Gedankenstrich zu verkleinern, oder auf die grünen Pfeile für benachbarte Karten.


METAR-TAF: